sensor_id;sensor_type;location;lat;lon;timestamp;temperature;humidity
12843;DHT22;35724;49.324;-123.118;2023-03-26T00:06:43;25.80;31.40
12843;DHT22;35724;49.324;-123.118;2023-03-26T00:17:00;25.70;33.50
12843;DHT22;35724;49.324;-123.118;2023-03-26T00:27:13;25.80;31.70
12843;DHT22;35724;49.324;-123.118;2023-03-26T00:37:30;25.70;32.10
12843;DHT22;35724;49.324;-123.118;2023-03-26T00:47:42;25.70;32.00
12843;DHT22;35724;49.324;-123.118;2023-03-26T00:57:55;25.60;31.90
12843;DHT22;35724;49.324;-123.118;2023-03-26T01:08:10;25.70;33.30
12843;DHT22;35724;49.324;-123.118;2023-03-26T01:18:23;25.80;32.70
12843;DHT22;35724;49.324;-123.118;2023-03-26T01:28:36;25.90;33.00
12843;DHT22;35724;49.324;-123.118;2023-03-26T01:38:50;26.00;32.80
12843;DHT22;35724;49.324;-123.118;2023-03-26T01:49:02;26.10;33.00
12843;DHT22;35724;49.324;-123.118;2023-03-26T01:59:26;26.20;33.30
12843;DHT22;35724;49.324;-123.118;2023-03-26T02:09:42;26.10;33.00
12843;DHT22;35724;49.324;-123.118;2023-03-26T02:19:50;26.00;32.90
12843;DHT22;35724;49.324;-123.118;2023-03-26T02:30:00;26.00;32.50
12843;DHT22;35724;49.324;-123.118;2023-03-26T02:40:11;26.00;32.40
12843;DHT22;35724;49.324;-123.118;2023-03-26T02:50:21;26.00;32.50
12843;DHT22;35724;49.324;-123.118;2023-03-26T03:00:52;26.00;32.40
12843;DHT22;35724;49.324;-123.118;2023-03-26T03:11:12;26.00;32.10
12843;DHT22;35724;49.324;-123.118;2023-03-26T03:21:27;25.90;31.80
12843;DHT22;35724;49.324;-123.118;2023-03-26T03:31:37;25.80;32.10
12843;DHT22;35724;49.324;-123.118;2023-03-26T03:41:55;25.90;32.50
12843;DHT22;35724;49.324;-123.118;2023-03-26T03:52:05;25.90;32.60
12843;DHT22;35724;49.324;-123.118;2023-03-26T04:02:17;26.00;32.90
12843;DHT22;35724;49.324;-123.118;2023-03-26T04:12:35;26.10;33.20
12843;DHT22;35724;49.324;-123.118;2023-03-26T04:22:44;26.20;33.50
12843;DHT22;35724;49.324;-123.118;2023-03-26T04:32:59;26.30;33.50
12843;DHT22;35724;49.324;-123.118;2023-03-26T04:43:14;26.40;34.10
12843;DHT22;35724;49.324;-123.118;2023-03-26T04:53:49;26.50;34.50
12843;DHT22;35724;49.324;-123.118;2023-03-26T05:04:20;26.60;35.10
12843;DHT22;35724;49.324;-123.118;2023-03-26T05:14:31;26.70;35.10
12843;DHT22;35724;49.324;-123.118;2023-03-26T05:24:43;26.80;35.30
12843;DHT22;35724;49.324;-123.118;2023-03-26T05:34:51;26.80;34.00
12843;DHT22;35724;49.324;-123.118;2023-03-26T05:44:59;26.80;33.20
12843;DHT22;35724;49.324;-123.118;2023-03-26T05:55:11;26.70;33.30
12843;DHT22;35724;49.324;-123.118;2023-03-26T06:05:53;26.80;33.00
12843;DHT22;35724;49.324;-123.118;2023-03-26T06:16:19;26.70;33.00
12843;DHT22;35724;49.324;-123.118;2023-03-26T06:26:51;26.70;33.20
12843;DHT22;35724;49.324;-123.118;2023-03-26T06:37:27;26.80;33.40
12843;DHT22;35724;49.324;-123.118;2023-03-26T06:47:37;26.80;33.60
12843;DHT22;35724;49.324;-123.118;2023-03-26T06:58:10;26.80;33.60
12843;DHT22;35724;49.324;-123.118;2023-03-26T07:08:36;26.80;33.70
12843;DHT22;35724;49.324;-123.118;2023-03-26T07:18:56;26.90;33.70
12843;DHT22;35724;49.324;-123.118;2023-03-26T07:29:12;27.00;33.80
12843;DHT22;35724;49.324;-123.118;2023-03-26T07:39:51;27.00;34.40
12843;DHT22;35724;49.324;-123.118;2023-03-26T07:50:22;27.00;33.80
12843;DHT22;35724;49.324;-123.118;2023-03-26T08:00:40;27.10;33.80
12843;DHT22;35724;49.324;-123.118;2023-03-26T08:11:01;27.00;33.80
12843;DHT22;35724;49.324;-123.118;2023-03-26T08:21:27;27.00;33.60
12843;DHT22;35724;49.324;-123.118;2023-03-26T08:31:37;27.00;33.40
12843;DHT22;35724;49.324;-123.118;2023-03-26T08:42:14;26.90;33.20
12843;DHT22;35724;49.324;-123.118;2023-03-26T09:14:24;26.90;33.50
12843;DHT22;35724;49.324;-123.118;2023-03-26T09:35:44;26.90;33.20
12843;DHT22;35724;49.324;-123.118;2023-03-26T09:46:03;26.90;33.30
12843;DHT22;35724;49.324;-123.118;2023-03-26T09:56:18;26.90;33.40
12843;DHT22;35724;49.324;-123.118;2023-03-26T10:17:10;26.90;33.20
12843;DHT22;35724;49.324;-123.118;2023-03-26T10:27:32;26.90;33.30
12843;DHT22;35724;49.324;-123.118;2023-03-26T10:37:54;26.90;33.40
12843;DHT22;35724;49.324;-123.118;2023-03-26T10:48:17;26.90;33.40
12843;DHT22;35724;49.324;-123.118;2023-03-26T10:58:28;26.90;33.20
12843;DHT22;35724;49.324;-123.118;2023-03-26T11:08:58;26.90;33.30
12843;DHT22;35724;49.324;-123.118;2023-03-26T11:19:13;26.90;33.50
12843;DHT22;35724;49.324;-123.118;2023-03-26T11:29:35;26.90;33.20
12843;DHT22;35724;49.324;-123.118;2023-03-26T11:39:49;26.90;33.10
12843;DHT22;35724;49.324;-123.118;2023-03-26T11:49:59;26.90;33.20
12843;DHT22;35724;49.324;-123.118;2023-03-26T12:00:13;26.90;33.20
12843;DHT22;35724;49.324;-123.118;2023-03-26T12:10:27;26.90;33.10
12843;DHT22;35724;49.324;-123.118;2023-03-26T12:20:40;26.90;33.60
12843;DHT22;35724;49.324;-123.118;2023-03-26T12:30:51;26.90;33.00
12843;DHT22;35724;49.324;-123.118;2023-03-26T12:41:06;26.90;33.10
12843;DHT22;35724;49.324;-123.118;2023-03-26T12:51:38;27.00;32.90
12843;DHT22;35724;49.324;-123.118;2023-03-26T13:01:54;27.00;32.90
12843;DHT22;35724;49.324;-123.118;2023-03-26T13:12:14;26.90;33.10
12843;DHT22;35724;49.324;-123.118;2023-03-26T13:22:29;26.90;33.10
12843;DHT22;35724;49.324;-123.118;2023-03-26T13:32:52;27.00;32.80
12843;DHT22;35724;49.324;-123.118;2023-03-26T13:43:23;27.00;32.90
12843;DHT22;35724;49.324;-123.118;2023-03-26T13:53:39;26.90;33.10
12843;DHT22;35724;49.324;-123.118;2023-03-26T14:03:53;26.90;33.00
12843;DHT22;35724;49.324;-123.118;2023-03-26T14:14:05;27.00;32.80
12843;DHT22;35724;49.324;-123.118;2023-03-26T14:35:29;27.00;33.10
12843;DHT22;35724;49.324;-123.118;2023-03-26T14:45:57;27.00;32.80
12843;DHT22;35724;49.324;-123.118;2023-03-26T14:56:32;27.00;32.70
12843;DHT22;35724;49.324;-123.118;2023-03-26T15:39:29;27.00;32.80
12843;DHT22;35724;49.324;-123.118;2023-03-26T15:49:45;27.00;32.80
12843;DHT22;35724;49.324;-123.118;2023-03-26T16:00:18;26.80;32.30
12843;DHT22;35724;49.324;-123.118;2023-03-26T16:10:42;26.60;32.00
12843;DHT22;35724;49.324;-123.118;2023-03-26T16:21:35;26.50;32.90
12843;DHT22;35724;49.324;-123.118;2023-03-26T16:32:09;26.50;33.80
12843;DHT22;35724;49.324;-123.118;2023-03-26T16:42:32;26.50;34.30
12843;DHT22;35724;49.324;-123.118;2023-03-26T17:26:32;26.40;34.70
12843;DHT22;35724;49.324;-123.118;2023-03-26T17:37:04;26.50;34.10
12843;DHT22;35724;49.324;-123.118;2023-03-26T17:48:04;26.50;34.00
12843;DHT22;35724;49.324;-123.118;2023-03-26T17:58:32;26.40;34.00
12843;DHT22;35724;49.324;-123.118;2023-03-26T18:08:57;26.30;33.10
12843;DHT22;35724;49.324;-123.118;2023-03-26T18:19:24;26.40;33.20
12843;DHT22;35724;49.324;-123.118;2023-03-26T18:52:27;26.30;31.40
12843;DHT22;35724;49.324;-123.118;2023-03-26T19:02:47;26.20;31.00
12843;DHT22;35724;49.324;-123.118;2023-03-26T19:13:00;26.10;32.80
12843;DHT22;35724;49.324;-123.118;2023-03-26T19:23:20;26.00;32.70
12843;DHT22;35724;49.324;-123.118;2023-03-26T19:33:33;26.00;32.50
12843;DHT22;35724;49.324;-123.118;2023-03-26T19:43:47;25.90;32.40
12843;DHT22;35724;49.324;-123.118;2023-03-26T19:54:01;25.90;32.20
12843;DHT22;35724;49.324;-123.118;2023-03-26T20:16:03;25.80;32.10
12843;DHT22;35724;49.324;-123.118;2023-03-26T20:26:13;25.80;32.00
12843;DHT22;35724;49.324;-123.118;2023-03-26T20:36:23;25.80;31.90
12843;DHT22;35724;49.324;-123.118;2023-03-26T20:46:38;25.80;32.50
12843;DHT22;35724;49.324;-123.118;2023-03-26T20:56:47;25.80;32.20
12843;DHT22;35724;49.324;-123.118;2023-03-26T21:06:56;25.70;32.20
12843;DHT22;35724;49.324;-123.118;2023-03-26T21:17:15;25.80;32.30
12843;DHT22;35724;49.324;-123.118;2023-03-26T21:27:26;25.80;32.30
12843;DHT22;35724;49.324;-123.118;2023-03-26T21:37:40;25.80;32.20
12843;DHT22;35724;49.324;-123.118;2023-03-26T21:48:01;25.70;32.30
12843;DHT22;35724;49.324;-123.118;2023-03-26T21:58:30;25.70;31.70
12843;DHT22;35724;49.324;-123.118;2023-03-26T22:08:58;25.70;32.10
12843;DHT22;35724;49.324;-123.118;2023-03-26T22:19:13;25.80;32.20
12843;DHT22;35724;49.324;-123.118;2023-03-26T22:29:34;25.80;32.20
12843;DHT22;35724;49.324;-123.118;2023-03-26T22:39:48;25.90;32.50
12843;DHT22;35724;49.324;-123.118;2023-03-26T22:50:01;25.70;31.70
12843;DHT22;35724;49.324;-123.118;2023-03-26T23:00:15;25.60;31.10
12843;DHT22;35724;49.324;-123.118;2023-03-26T23:10:27;25.50;31.50
12843;DHT22;35724;49.324;-123.118;2023-03-26T23:20:37;25.50;31.40
12843;DHT22;35724;49.324;-123.118;2023-03-26T23:30:49;25.30;30.70
12843;DHT22;35724;49.324;-123.118;2023-03-26T23:41:06;25.30;32.20
12843;DHT22;35724;49.324;-123.118;2023-03-26T23:51:23;25.60;32.40
